Time;durP1;ratioP1;P1;durP2;ratioP2;P2;SDS_P1;SDS_P2;PMS_P1;PMS_P2;Temp;Humidity;BMP_temperature;BMP_pressure;BME280_temperature;BME280_humidity;BME280_pressure;Samples;Min_cycle;Max_cycle;Signal;HPM_P1;HPM_P2
2021/03/28 00:02:29;;;;;;;18.73;5.20;;;7.00;70.90;;;;;;5054979;28;20017;-78
2021/03/28 00:04:59;;;;;;;20.75;5.57;;;7.00;71.00;;;;;;5053744;28;20112;-77
2021/03/28 00:07:37;;;;;;;26.33;5.82;;;7.10;71.10;;;;;;5054537;28;20040;-78
2021/03/28 00:10:09;;;;;;;20.73;4.65;;;7.10;71.10;;;;;;5053608;28;20446;-78
2021/03/28 00:12:37;;;;;;;14.95;4.90;;;7.10;71.10;;;;;;5054144;28;20017;-78
2021/03/28 00:15:05;;;;;;;16.10;4.75;;;7.10;71.10;;;;;;5053469;28;20453;-78
2021/03/28 00:17:40;;;;;;;21.13;5.90;;;7.10;71.10;;;;;;5052939;28;20052;-79
2021/03/28 00:20:16;;;;;;;18.02;5.20;;;7.00;71.20;;;;;;5054608;28;20024;-79
2021/03/28 00:23:03;;;;;;;13.55;4.68;;;7.10;71.50;;;;;;5052869;28;20082;-79
2021/03/28 00:25:37;;;;;;;24.15;6.18;;;7.00;71.80;;;;;;5053012;28;20021;-78
2021/03/28 00:28:31;;;;;;;19.20;5.00;;;7.10;71.80;;;;;;5053149;28;20166;-79
2021/03/28 00:31:26;;;;;;;18.27;4.70;;;7.10;71.90;;;;;;5054676;28;20048;-81
2021/03/28 00:34:22;;;;;;;18.17;4.78;;;7.10;72.10;;;;;;5052844;28;20017;-79
2021/03/28 00:36:53;;;;;;;13.00;4.13;;;7.10;72.50;;;;;;5052683;28;20492;-79
2021/03/28 00:39:48;;;;;;;19.88;4.97;;;7.10;72.50;;;;;;5055582;28;20024;-78
2021/03/28 00:42:40;;;;;;;13.50;4.78;;;7.10;72.50;;;;;;5056427;28;20017;-79
2021/03/28 00:45:13;;;;;;;22.13;5.55;;;7.10;72.80;;;;;;5053434;28;20013;-79
2021/03/28 00:47:41;;;;;;;19.77;6.47;;;7.00;72.80;;;;;;5052998;28;20049;-77
2021/03/28 00:50:30;;;;;;;16.95;4.78;;;7.10;72.90;;;;;;5053051;28;20036;-79
2021/03/28 00:53:02;;;;;;;19.98;5.03;;;7.10;73.00;;;;;;5043577;28;20055;-77
2021/03/28 00:55:38;;;;;;;19.95;5.50;;;7.10;73.10;;;;;;5054382;28;20024;-78
2021/03/28 00:58:15;;;;;;;22.00;4.65;;;7.10;73.80;;;;;;5053433;28;20021;-78
2021/03/28 01:00:47;;;;;;;22.80;4.57;;;7.10;73.60;;;;;;5053167;28;20021;-78
2021/03/28 01:03:57;;;;;;;20.88;5.20;;;7.10;73.60;;;;;;5052225;28;20013;-77
2021/03/28 01:06:49;;;;;;;21.92;5.82;;;7.10;73.70;;;;;;5051400;28;20051;-77
2021/03/28 01:09:32;;;;;;;24.17;5.57;;;7.10;73.80;;;;;;5052262;28;20029;-78
2021/03/28 01:12:22;;;;;;;18.02;5.53;;;7.10;74.00;;;;;;5052818;28;20032;-78
2021/03/28 01:15:19;;;;;;;21.95;5.70;;;7.10;74.20;;;;;;5052111;28;20045;-78
2021/03/28 01:17:53;;;;;;;20.63;5.88;;;7.10;74.40;;;;;;5051817;28;20064;-78
2021/03/28 01:20:28;;;;;;;30.17;6.88;;;7.10;74.60;;;;;;5051718;28;20056;-77
2021/03/28 01:23:18;;;;;;;24.27;5.78;;;7.10;74.80;;;;;;5052141;28;20024;-77
2021/03/28 01:25:53;;;;;;;18.80;6.05;;;7.10;74.80;;;;;;5053080;28;20009;-78
2021/03/28 01:28:42;;;;;;;17.23;7.00;;;7.10;75.00;;;;;;5053069;28;20092;-79
2021/03/28 01:31:27;;;;;;;16.70;6.23;;;7.10;75.10;;;;;;5053106;28;20025;-79
2021/03/28 01:34:08;;;;;;;23.63;6.43;;;7.10;75.40;;;;;;5051734;28;20407;-78
2021/03/28 01:36:40;;;;;;;19.13;6.25;;;7.10;75.40;;;;;;5052689;28;20025;-79
2021/03/28 01:39:22;;;;;;;25.23;6.47;;;7.10;75.60;;;;;;5052811;28;20048;-78
2021/03/28 01:41:54;;;;;;;15.98;6.18;;;7.00;75.80;;;;;;5051518;28;20056;-77
2021/03/28 01:44:47;;;;;;;18.50;6.53;;;7.00;76.10;;;;;;5067747;28;20025;-79
2021/03/28 01:47:32;;;;;;;20.17;6.25;;;7.00;76.30;;;;;;5071473;28;20027;-78
2021/03/28 01:50:21;;;;;;;24.83;6.28;;;7.00;76.40;;;;;;5071147;28;20530;-78
2021/03/28 01:53:12;;;;;;;14.53;5.23;;;7.00;76.80;;;;;;5070835;28;20024;-78
2021/03/28 01:56:00;;;;;;;15.70;4.78;;;7.00;77.20;;;;;;5070906;28;20754;-78
2021/03/28 01:58:53;;;;;;;22.27;7.35;;;7.00;77.40;;;;;;5071325;28;20021;-78
2021/03/28 02:01:24;;;;;;;17.67;5.03;;;7.00;77.40;;;;;;5071314;28;20055;-78
2021/03/28 02:04:12;;;;;;;17.30;4.70;;;6.90;77.50;;;;;;5071123;28;20514;-79
2021/03/28 02:06:45;;;;;;;17.42;4.78;;;6.90;77.80;;;;;;5070491;28;20580;-78
2021/03/28 02:09:30;;;;;;;18.42;4.55;;;6.90;78.10;;;;;;5071194;28;20032;-78
2021/03/28 02:12:09;;;;;;;23.50;4.97;;;6.90;78.00;;;;;;5070764;28;20111;-79
2021/03/28 02:14:58;;;;;;;21.50;4.00;;;6.90;78.20;;;;;;5070719;28;20020;-79
2021/03/28 02:17:49;;;;;;;17.35;5.65;;;6.90;78.30;;;;;;5072308;28;20028;-77
2021/03/28 02:20:35;;;;;;;15.45;3.97;;;6.90;78.50;;;;;;5072400;28;20114;-78
2021/03/28 02:23:13;;;;;;;18.65;3.83;;;6.90;78.60;;;;;;5070106;28;20352;-78
2021/03/28 02:25:48;;;;;;;16.35;4.20;;;6.90;78.80;;;;;;5070911;28;20357;-78
2021/03/28 02:28:42;;;;;;;14.68;3.67;;;6.90;78.90;;;;;;5072308;28;20016;-78
2021/03/28 02:31:35;;;;;;;14.40;3.63;;;6.90;79.10;;;;;;5071103;28;20119;-78
2021/03/28 02:34:10;;;;;;;16.13;4.10;;;7.00;79.30;;;;;;5072243;28;20081;-78
2021/03/28 02:36:40;;;;;;;16.98;3.42;;;6.90;79.30;;;;;;5071029;28;20078;-79
2021/03/28 02:39:11;;;;;;;13.45;3.00;;;6.90;79.40;;;;;;5070997;28;20115;-79
2021/03/28 02:42:04;;;;;;;14.23;3.90;;;6.90;79.70;;;;;;5070150;28;20036;-79
2021/03/28 02:44:57;;;;;;;16.08;5.18;;;6.90;79.60;;;;;;5071875;28;20087;-78
2021/03/28 02:47:41;;;;;;;17.10;4.00;;;6.90;79.70;;;;;;5070702;28;20016;-78
2021/03/28 02:50:10;;;;;;;15.02;4.18;;;6.90;80.10;;;;;;5072112;28;20029;-78
2021/03/28 02:52:44;;;;;;;15.43;3.45;;;6.90;80.10;;;;;;5071755;28;20070;-78
2021/03/28 02:55:35;;;;;;;12.60;3.65;;;6.90;80.30;;;;;;5070450;28;20212;-78
2021/03/28 02:58:37;;;;;;;20.17;4.20;;;6.90;80.40;;;;;;5072071;28;20020;-78
2021/03/28 03:01:15;;;;;;;16.52;3.20;;;6.90;80.50;;;;;;5071533;28;20345;-78
2021/03/28 03:04:02;;;;;;;17.38;3.78;;;6.90;80.80;;;;;;5071603;28;20020;-78
2021/03/28 03:06:46;;;;;;;15.13;3.42;;;6.90;80.80;;;;;;5071461;28;20045;-79
2021/03/28 03:09:29;;;;;;;14.57;4.05;;;6.90;80.90;;;;;;5072158;28;20037;-79
2021/03/28 03:12:20;;;;;;;17.67;4.15;;;6.90;80.90;;;;;;5070669;28;20023;-78
2021/03/28 03:15:25;;;;;;;17.58;3.60;;;6.90;81.00;;;;;;5070343;28;20017;-79
2021/03/28 03:18:13;;;;;;;16.02;3.15;;;6.90;81.10;;;;;;5070126;28;20342;-77
2021/03/28 03:21:16;;;;;;;12.65;3.33;;;6.90;81.10;;;;;;5070042;28;20047;-78
2021/03/28 03:24:18;;;;;;;18.92;3.10;;;7.00;81.30;;;;;;5071476;28;20028;-78
2021/03/28 03:27:23;;;;;;;20.42;3.97;;;6.90;81.40;;;;;;5071309;28;20123;-78
2021/03/28 03:29:58;;;;;;;17.13;3.03;;;6.90;81.50;;;;;;5072140;28;20107;-77
2021/03/28 03:32:52;;;;;;;14.73;2.95;;;6.90;81.60;;;;;;5070826;28;20020;-78
2021/03/28 03:35:34;;;;;;;20.67;4.10;;;6.90;81.70;;;;;;5074230;28;20025;-78
2021/03/28 03:38:34;;;;;;;11.75;3.42;;;6.90;81.80;;;;;;5074139;28;20020;-78
2021/03/28 03:41:09;;;;;;;12.57;3.38;;;6.90;81.80;;;;;;5077083;28;20023;-78
2021/03/28 03:44:12;;;;;;;21.23;4.35;;;6.90;81.80;;;;;;5076423;28;20036;-78
2021/03/28 03:47:33;;;;;;;19.15;3.10;;;6.90;81.90;;;;;;5073709;28;20334;-78
2021/03/28 03:50:12;;;;;;;14.88;3.22;;;6.90;81.90;;;;;;5055355;28;20477;-78
2021/03/28 03:52:56;;;;;;;15.63;4.43;;;6.90;82.40;;;;;;5055527;28;20017;-79
2021/03/28 03:55:49;;;;;;;16.42;4.10;;;6.90;82.20;;;;;;5074315;28;20039;-79
2021/03/28 03:58:36;;;;;;;25.67;4.78;;;6.90;82.20;;;;;;5074955;28;20461;-78
2021/03/28 04:01:26;;;;;;;15.18;3.75;;;6.90;82.30;;;;;;5073725;28;20024;-78
2021/03/28 04:03:54;;;;;;;13.38;3.15;;;6.90;82.30;;;;;;5073290;28;20403;-78
2021/03/28 04:06:37;;;;;;;12.93;2.97;;;7.00;82.40;;;;;;5074542;28;20044;-78
2021/03/28 04:09:31;;;;;;;12.45;3.17;;;7.00;82.90;;;;;;5073417;28;20021;-77
2021/03/28 04:12:25;;;;;;;17.17;2.92;;;7.00;82.30;;;;;;5073294;28;20420;-78
2021/03/28 04:15:09;;;;;;;18.13;2.85;;;7.00;82.20;;;;;;5074543;28;20032;-78
2021/03/28 04:18:00;;;;;;;12.95;3.00;;;7.00;82.30;;;;;;5074658;28;20089;-77
2021/03/28 04:20:48;;;;;;;19.73;3.42;;;7.00;82.10;;;;;;5075045;28;20112;-78
2021/03/28 04:23:40;;;;;;;11.93;2.47;;;7.00;81.90;;;;;;5074730;28;20022;-78
2021/03/28 04:26:38;;;;;;;17.00;3.10;;;7.10;82.30;;;;;;5074519;28;20119;-78
2021/03/28 04:29:05;;;;;;;14.40;2.97;;;7.10;81.80;;;;;;5074251;28;20060;-79
2021/03/28 04:32:02;;;;;;;19.58;4.88;;;7.10;82.00;;;;;;5073237;28;20017;-79
2021/03/28 04:34:57;;;;;;;13.45;4.50;;;7.10;81.70;;;;;;5072873;28;20074;-79
2021/03/28 04:37:41;;;;;;;20.02;3.88;;;7.10;81.80;;;;;;5073191;28;20021;-78
2021/03/28 04:40:41;;;;;;;14.48;3.35;;;7.10;81.70;;;;;;5072871;28;20119;-79
2021/03/28 04:43:41;;;;;;;19.02;3.70;;;7.10;81.70;;;;;;5072934;28;20376;-78
2021/03/28 04:46:26;;;;;;;10.98;2.95;;;7.10;81.80;;;;;;5063518;28;20195;-78
2021/03/28 04:49:10;;;;;;;12.82;3.97;;;7.10;82.00;;;;;;5072555;28;20025;-79
2021/03/28 04:52:12;;;;;;;15.77;3.10;;;7.10;81.70;;;;;;5072936;28;20031;-78
2021/03/28 04:55:12;;;;;;;21.15;4.05;;;7.10;81.70;;;;;;5073004;28;20028;-78
2021/03/28 04:57:55;;;;;;;12.55;3.83;;;7.10;81.70;;;;;;5072957;28;20020;-78
2021/03/28 05:00:50;;;;;;;22.80;3.67;;;7.10;81.50;;;;;;5074563;28;20028;-78
2021/03/28 05:03:27;;;;;;;11.23;3.28;;;7.10;81.50;;;;;;5073124;28;20456;-78
2021/03/28 05:06:19;;;;;;;18.45;3.60;;;7.10;81.50;;;;;;5073571;28;20020;-76
2021/03/28 05:08:50;;;;;;;14.73;3.47;;;7.10;81.60;;;;;;5072598;28;20029;-76
2021/03/28 05:11:28;;;;;;;19.73;4.15;;;7.10;81.60;;;;;;5072714;28;20452;-76
2021/03/28 05:14:00;;;;;;;16.80;3.60;;;7.10;81.60;;;;;;5073184;28;20463;-76
2021/03/28 05:16:31;;;;;;;14.60;3.80;;;7.20;81.80;;;;;;5072130;28;20111;-76
2021/03/28 05:19:34;;;;;;;21.20;4.10;;;7.20;81.80;;;;;;5073125;28;20028;-76
2021/03/28 05:22:11;;;;;;;17.70;4.05;;;7.20;81.70;;;;;;5073157;28;20048;-77
2021/03/28 05:25:14;;;;;;;11.90;3.20;;;7.20;81.70;;;;;;5071969;28;20016;-76
2021/03/28 05:27:58;;;;;;;15.32;3.13;;;7.20;81.60;;;;;;5071839;28;20112;-77
2021/03/28 05:30:43;;;;;;;11.80;2.90;;;7.20;81.50;;;;;;5073098;28;20029;-78
2021/03/28 05:33:26;;;;;;;17.63;3.25;;;7.30;81.50;;;;;;5071553;28;20025;-78
2021/03/28 05:36:18;;;;;;;15.13;3.50;;;7.30;81.30;;;;;;5071534;28;20055;-78
2021/03/28 05:39:08;;;;;;;12.98;3.22;;;7.40;81.30;;;;;;5071846;28;20055;-78
2021/03/28 05:41:43;;;;;;;18.65;3.60;;;7.40;81.20;;;;;;5071754;28;20465;-79
2021/03/28 05:44:17;;;;;;;13.70;3.13;;;7.40;81.30;;;;;;5071358;28;20425;-78
2021/03/28 05:47:16;;;;;;;18.63;3.25;;;7.40;81.10;;;;;;5071388;28;20024;-78
2021/03/28 05:50:12;;;;;;;12.63;3.10;;;7.50;81.20;;;;;;5071159;28;20422;-78
2021/03/28 05:52:40;;;;;;;13.02;3.75;;;7.50;80.90;;;;;;5071421;28;20023;-77
2021/03/28 05:55:24;;;;;;;10.20;2.92;;;7.50;80.80;;;;;;5071231;28;20531;-78
2021/03/28 05:57:59;;;;;;;14.25;3.30;;;7.60;80.70;;;;;;5071225;28;20020;-77
2021/03/28 06:00:51;;;;;;;11.68;3.13;;;7.60;80.60;;;;;;5072537;28;20126;-77
2021/03/28 06:03:25;;;;;;;10.30;3.53;;;7.60;80.60;;;;;;5071338;28;20012;-76
2021/03/28 06:05:54;;;;;;;13.63;3.58;;;7.70;80.50;;;;;;5070994;28;20361;-76
2021/03/28 06:08:57;;;;;;;12.73;3.50;;;7.70;80.30;;;;;;5072218;28;20070;-76
2021/03/28 06:11:54;;;;;;;16.13;3.80;;;7.80;80.30;;;;;;5071167;28;20020;-77
2021/03/28 06:15:01;;;;;;;12.07;3.30;;;7.80;80.10;;;;;;5071722;28;20040;-76
2021/03/28 06:18:12;;;;;;;11.95;3.03;;;7.90;80.10;;;;;;5069685;28;20505;-77
2021/03/28 06:20:55;;;;;;;14.77;2.97;;;7.90;79.70;;;;;;4990395;28;20462;-76
2021/03/28 06:24:09;;;;;;;13.13;3.15;;;8.00;79.50;;;;;;5078079;28;20028;-77
2021/03/28 06:26:52;;;;;;;12.68;2.67;;;8.00;79.60;;;;;;5072969;28;20028;-77
2021/03/28 06:29:46;;;;;;;16.48;3.85;;;8.10;79.30;;;;;;5072481;28;20047;-77
2021/03/28 06:32:37;;;;;;;10.40;2.72;;;8.10;79.00;;;;;;5071560;28;20090;-76
2021/03/28 06:35:12;;;;;;;15.77;3.47;;;8.20;78.80;;;;;;5070906;28;20028;-76
2021/03/28 06:38:04;;;;;;;12.32;3.22;;;8.20;78.70;;;;;;5071146;28;20028;-76
2021/03/28 06:40:58;;;;;;;11.70;3.03;;;8.20;78.50;;;;;;5070994;28;20017;-76
2021/03/28 06:43:42;;;;;;;12.30;2.92;;;8.30;78.70;;;;;;5072072;28;20028;-76
2021/03/28 06:46:39;;;;;;;11.90;2.83;;;8.40;78.60;;;;;;5071893;28;20024;-76
2021/03/28 06:49:37;;;;;;;17.13;3.17;;;8.50;77.60;;;;;;5070483;28;20028;-76
2021/03/28 06:52:15;;;;;;;12.48;3.20;;;8.50;77.40;;;;;;5066556;28;20028;-77
2021/03/28 06:55:14;;;;;;;9.93;2.70;;;8.60;77.70;;;;;;5072493;28;20100;-77
2021/03/28 06:58:24;;;;;;;12.48;3.58;;;8.60;77.30;;;;;;5072047;28;20020;-77
2021/03/28 07:01:20;;;;;;;12.38;2.75;;;8.60;76.70;;;;;;5072053;28;20349;-77
2021/03/28 07:04:16;;;;;;;9.02;3.15;;;8.60;76.60;;;;;;5070578;28;20473;-75
2021/03/28 07:06:59;;;;;;;9.50;2.83;;;8.60;76.90;;;;;;5071618;28;20048;-76
2021/03/28 07:09:52;;;;;;;12.30;2.88;;;8.70;77.20;;;;;;5073266;28;20025;-76
2021/03/28 07:12:39;;;;;;;14.95;3.38;;;8.70;76.70;;;;;;5075678;28;20369;-77
2021/03/28 07:15:21;;;;;;;11.35;2.78;;;8.90;76.40;;;;;;5075492;28;20043;-77
2021/03/28 07:18:16;;;;;;;10.15;2.72;;;8.90;76.00;;;;;;5075892;28;20024;-76
2021/03/28 07:21:04;;;;;;;12.38;2.90;;;9.00;75.80;;;;;;5074617;28;20472;-76
2021/03/28 07:23:47;;;;;;;12.57;3.22;;;9.00;76.00;;;;;;5075196;28;20033;-76
2021/03/28 07:26:31;;;;;;;11.35;3.13;;;9.00;75.90;;;;;;5074384;28;20009;-75
2021/03/28 07:29:21;;;;;;;12.38;3.30;;;9.10;76.10;;;;;;5074106;28;20025;-77
2021/03/28 07:31:50;;;;;;;15.77;4.00;;;9.20;76.00;;;;;;5075722;28;20029;-77
2021/03/28 07:34:18;;;;;;;18.95;4.15;;;9.20;75.30;;;;;;5074020;28;20024;-76
2021/03/28 07:37:13;;;;;;;12.05;2.75;;;9.30;74.80;;;;;;5074400;28;20019;-76
2021/03/28 07:40:24;;;;;;;16.88;3.60;;;9.40;75.10;;;;;;5075601;28;20020;-77
2021/03/28 07:43:02;;;;;;;14.07;4.03;;;9.50;74.60;;;;;;5070933;28;20354;-76
2021/03/28 07:45:45;;;;;;;13.27;3.28;;;9.50;74.50;;;;;;5053755;28;20037;-76
2021/03/28 07:48:44;;;;;;;12.25;2.90;;;9.60;74.40;;;;;;5053640;28;20028;-77
2021/03/28 07:51:50;;;;;;;9.77;3.25;;;9.70;74.20;;;;;;5053486;28;20116;-75
2021/03/28 07:54:57;;;;;;;10.50;3.63;;;9.80;74.10;;;;;;5053724;28;20021;-75
2021/03/28 07:57:54;;;;;;;10.73;2.97;;;9.90;73.90;;;;;;5055122;28;20021;-75
2021/03/28 08:00:41;;;;;;;8.13;2.83;;;10.10;73.80;;;;;;5053564;28;20029;-75
2021/03/28 08:03:42;;;;;;;13.65;3.65;;;10.10;73.30;;;;;;5055052;28;20365;-78
2021/03/28 08:06:42;;;;;;;13.77;3.30;;;10.20;73.00;;;;;;5053590;28;20149;-77
2021/03/28 08:09:34;;;;;;;10.57;3.00;;;10.20;72.90;;;;;;5062088;28;20025;-77
2021/03/28 08:12:21;;;;;;;14.63;2.97;;;10.30;73.10;;;;;;5066686;28;20025;-78
2021/03/28 08:14:49;;;;;;;12.75;3.67;;;10.40;72.60;;;;;;5063547;28;20023;-79
2021/03/28 08:17:37;;;;;;;15.32;4.15;;;10.70;71.70;;;;;;5063068;28;20024;-77
2021/03/28 08:20:40;;;;;;;13.57;3.92;;;10.90;71.00;;;;;;5065465;28;20371;-78
2021/03/28 08:23:12;;;;;;;10.38;2.90;;;11.10;70.50;;;;;;5053360;28;20457;-78
2021/03/28 08:26:29;;;;;;;8.65;2.63;;;11.20;70.40;;;;;;5053558;28;20032;-77
2021/03/28 08:29:16;;;;;;;12.18;3.45;;;11.40;70.30;;;;;;5053883;28;20500;-77
2021/03/28 08:32:09;;;;;;;11.30;2.83;;;11.50;69.00;;;;;;5053541;28;20449;-78
2021/03/28 08:35:02;;;;;;;10.55;3.20;;;11.70;69.60;;;;;;5053496;28;20021;-78
2021/03/28 08:37:48;;;;;;;10.63;3.42;;;11.80;68.90;;;;;;5054079;28;20037;-78
2021/03/28 08:40:41;;;;;;;11.90;3.70;;;11.90;68.00;;;;;;5053464;28;20450;-78
2021/03/28 08:43:33;;;;;;;11.75;3.83;;;12.00;68.20;;;;;;5054112;28;20017;-78
2021/03/28 08:46:24;;;;;;;12.55;3.42;;;12.10;67.50;;;;;;5053857;28;20013;-78
2021/03/28 08:49:12;;;;;;;13.75;3.42;;;12.10;66.80;;;;;;5058142;28;20024;-78
2021/03/28 08:52:09;;;;;;;12.43;3.88;;;12.10;67.20;;;;;;5053358;28;20033;-79
2021/03/28 08:55:16;;;;;;;11.40;3.30;;;12.20;67.50;;;;;;5054145;28;20020;-78
2021/03/28 08:58:01;;;;;;;10.88;2.92;;;12.20;66.90;;;;;;5056614;28;20029;-77
2021/03/28 09:00:42;;;;;;;12.23;2.78;;;12.20;68.30;;;;;;5058132;28;20017;-78
2021/03/28 09:03:10;;;;;;;15.52;4.38;;;12.40;67.80;;;;;;5056785;28;20107;-78
2021/03/28 09:05:56;;;;;;;11.90;3.63;;;12.40;66.60;;;;;;5060058;28;20017;-79
2021/03/28 09:08:33;;;;;;;16.30;3.65;;;12.40;67.10;;;;;;5053951;28;20060;-78
2021/03/28 09:11:18;;;;;;;11.75;2.58;;;12.50;67.20;;;;;;5054059;28;20039;-79
2021/03/28 09:13:55;;;;;;;11.02;2.80;;;12.60;67.50;;;;;;5053030;28;20025;-77
2021/03/28 09:16:45;;;;;;;11.38;2.42;;;12.90;65.70;;;;;;5056887;28;20048;-77
2021/03/28 09:19:38;;;;;;;11.05;3.60;;;13.20;64.70;;;;;;5053929;28;20052;-77
2021/03/28 09:22:21;;;;;;;8.63;2.03;;;13.50;61.70;;;;;;5053851;28;20043;-76
2021/03/28 09:25:11;;;;;;;13.77;3.38;;;13.60;61.50;;;;;;5052479;28;20037;-77
2021/03/28 09:27:49;;;;;;;12.00;2.75;;;13.70;61.10;;;;;;5052503;28;20024;-76
2021/03/28 09:30:17;;;;;;;16.27;3.15;;;13.80;62.70;;;;;;5051700;28;20033;-77
2021/03/28 09:32:53;;;;;;;12.88;2.70;;;14.00;61.70;;;;;;5053374;28;20016;-77
2021/03/28 09:35:38;;;;;;;12.15;2.90;;;14.00;61.60;;;;;;5051755;28;20024;-77
2021/03/28 09:38:51;;;;;;;12.52;2.95;;;14.00;60.60;;;;;;5052981;28;20107;-77
2021/03/28 09:41:31;;;;;;;9.25;2.63;;;14.00;60.40;;;;;;5051637;28;20540;-77
2021/03/28 09:44:23;;;;;;;8.05;2.25;;;13.90;60.00;;;;;;5052556;28;20017;-78
2021/03/28 09:47:04;;;;;;;8.00;2.33;;;13.90;65.90;;;;;;5051669;28;20017;-78
2021/03/28 09:50:01;;;;;;;6.25;1.85;;;14.10;66.50;;;;;;5051338;28;20025;-78
2021/03/28 09:52:35;;;;;;;10.90;2.72;;;14.20;67.10;;;;;;5052907;28;20032;-77
2021/03/28 09:55:38;;;;;;;10.32;2.70;;;14.30;63.50;;;;;;5050876;28;20365;-76
2021/03/28 09:58:45;;;;;;;13.38;3.58;;;14.30;61.60;;;;;;5052556;28;20017;-77
2021/03/28 10:01:19;;;;;;;11.68;3.30;;;14.20;59.90;;;;;;5051366;28;20457;-77
2021/03/28 10:03:54;;;;;;;12.80;3.03;;;14.20;58.30;;;;;;5051447;28;20040;-77
2021/03/28 10:06:23;;;;;;;10.73;2.63;;;14.10;58.80;;;;;;5050883;28;20540;-77
2021/03/28 10:08:57;;;;;;;9.10;2.83;;;14.00;58.00;;;;;;5051391;28;20051;-77
2021/03/28 10:11:41;;;;;;;11.50;2.33;;;13.80;58.70;;;;;;5052575;28;20518;-76
2021/03/28 10:14:28;;;;;;;10.10;2.88;;;13.70;60.90;;;;;;5051015;28;20103;-76
2021/03/28 10:17:39;;;;;;;11.10;1.95;;;13.80;59.30;;;;;;5050872;28;20120;-77
2021/03/28 10:20:25;;;;;;;8.00;2.05;;;14.00;60.60;;;;;;5061578;28;20086;-75
2021/03/28 10:22:50;;;;;;;11.63;2.35;;;14.20;59.20;;;;;;5069736;28;20060;-76
2021/03/28 10:25:51;;;;;;;10.35;2.40;;;14.30;56.90;;;;;;5071641;28;20052;-76
2021/03/28 10:28:39;;;;;;;9.38;2.53;;;14.20;53.70;;;;;;5069118;28;20102;-75
2021/03/28 10:31:20;;;;;;;10.80;2.10;;;14.20;59.40;;;;;;5071870;28;20037;-76
2021/03/28 10:33:51;;;;;;;10.93;2.30;;;14.20;55.40;;;;;;5070708;28;20499;-77
2021/03/28 10:36:34;;;;;;;10.25;2.50;;;14.00;54.10;;;;;;5070295;28;20463;-79
2021/03/28 10:39:31;;;;;;;10.10;2.50;;;13.90;54.20;;;;;;5070658;28;20436;-78
2021/03/28 10:42:28;;;;;;;12.52;2.22;;;13.80;55.70;;;;;;5070626;28;20012;-77
2021/03/28 10:45:12;;;;;;;9.80;2.55;;;13.70;55.70;;;;;;5051056;28;20028;-77
2021/03/28 10:48:00;;;;;;;8.18;2.33;;;13.60;53.70;;;;;;5050677;28;20020;-77
2021/03/28 10:51:03;;;;;;;11.45;2.00;;;13.50;56.00;;;;;;5050462;28;20025;-77
2021/03/28 10:54:02;;;;;;;9.18;2.50;;;13.40;59.70;;;;;;5050629;28;20021;-77
2021/03/28 10:56:43;;;;;;;7.50;1.75;;;13.30;60.30;;;;;;5050843;28;20017;-77
2021/03/28 10:59:17;;;;;;;14.10;3.15;;;13.20;58.10;;;;;;5060114;28;20052;-78
2021/03/28 11:02:20;;;;;;;10.90;2.65;;;13.20;58.40;;;;;;5071168;28;20017;-77
2021/03/28 11:05:28;;;;;;;11.70;2.53;;;13.20;56.10;;;;;;5070252;28;20411;-77
2021/03/28 11:08:28;;;;;;;7.60;1.98;;;13.10;58.40;;;;;;5071324;28;20044;-76
2021/03/28 11:11:02;;;;;;;11.38;2.30;;;13.10;60.30;;;;;;5070731;28;20048;-76
2021/03/28 11:13:58;;;;;;;12.48;2.60;;;13.10;58.80;;;;;;5070627;28;20036;-75
2021/03/28 11:16:34;;;;;;;10.68;2.08;;;13.10;58.80;;;;;;5070289;28;20103;-77
2021/03/28 11:19:36;;;;;;;10.38;2.78;;;13.00;59.80;;;;;;5070081;28;20024;-76
2021/03/28 11:22:06;;;;;;;11.60;2.17;;;12.90;60.00;;;;;;5071227;28;20029;-76
2021/03/28 11:24:42;;;;;;;;;;;12.80;58.80;;;;;;5072231;28;20028;-77
2021/03/28 11:27:35;;;;;;;11.10;2.60;;;12.80;58.90;;;;;;5069394;28;19904;-77
2021/03/28 11:30:17;;;;;;;9.82;1.95;;;12.70;60.00;;;;;;5071138;28;20109;-76
2021/03/28 11:32:48;;;;;;;14.50;2.88;;;12.70;60.40;;;;;;5069655;28;20020;-76
2021/03/28 11:35:41;;;;;;;11.70;2.42;;;12.50;63.20;;;;;;5071067;28;20016;-78
2021/03/28 11:38:06;;;;;;;6.53;2.00;;;12.40;63.20;;;;;;5048947;28;20021;-78
2021/03/28 11:40:38;;;;;;;9.38;2.10;;;12.30;65.00;;;;;;5050940;28;20100;-77
2021/03/28 11:43:06;;;;;;;10.57;2.03;;;12.30;64.20;;;;;;5050284;28;20465;-76
2021/03/28 11:46:07;;;;;;;10.77;2.50;;;12.30;65.80;;;;;;5050005;28;20048;-76
2021/03/28 11:49:08;;;;;;;10.15;2.67;;;12.20;65.20;;;;;;5051656;28;20021;-77
2021/03/28 11:51:37;;;;;;;11.60;2.55;;;12.20;65.40;;;;;;5050098;28;20037;-78
2021/03/28 11:54:08;;;;;;;14.25;2.78;;;12.00;65.20;;;;;;5051142;28;20067;-77
2021/03/28 11:56:40;;;;;;;9.93;2.40;;;12.10;64.90;;;;;;5054142;28;20474;-78
2021/03/28 11:59:26;;;;;;;13.93;3.00;;;12.00;64.80;;;;;;5053279;28;20488;-76
2021/03/28 12:01:55;;;;;;;14.43;2.97;;;12.10;65.10;;;;;;5054779;28;20021;-78
2021/03/28 12:04:36;;;;;;;11.75;2.67;;;12.20;65.30;;;;;;5057719;28;20028;-78
2021/03/28 12:07:37;;;;;;;12.85;3.00;;;12.20;65.60;;;;;;5053211;28;20124;-78
2021/03/28 12:10:03;;;;;;;10.35;2.47;;;12.30;65.50;;;;;;5054943;28;20481;-78
2021/03/28 12:12:40;;;;;;;12.43;2.47;;;12.40;64.10;;;;;;5058016;28;20048;-78
2021/03/28 12:15:43;;;;;;;11.68;3.20;;;12.40;66.10;;;;;;5053009;28;20099;-78
2021/03/28 12:18:24;;;;;;;12.63;2.42;;;12.40;62.20;;;;;;5053073;28;20028;-78
2021/03/28 12:20:59;;;;;;;11.48;2.00;;;12.40;64.00;;;;;;5053385;28;20036;-77
2021/03/28 12:23:39;;;;;;;13.15;2.67;;;12.40;63.80;;;;;;5053254;28;20017;-77
2021/03/28 12:26:07;;;;;;;12.32;2.78;;;12.40;64.60;;;;;;5054303;28;20017;-77
2021/03/28 12:28:46;;;;;;;11.73;3.10;;;12.30;62.30;;;;;;5052983;28;20036;-77
2021/03/28 12:31:30;;;;;;;10.00;2.53;;;12.30;63.10;;;;;;5052935;28;20369;-77
2021/03/28 12:34:21;;;;;;;8.40;2.35;;;12.30;63.10;;;;;;5052981;28;20021;-77
2021/03/28 12:36:52;;;;;;;10.57;3.00;;;12.30;64.30;;;;;;5060961;28;20013;-79
2021/03/28 12:39:31;;;;;;;11.85;3.78;;;12.30;64.80;;;;;;5073298;28;20119;-78
2021/03/28 12:42:22;;;;;;;8.50;2.23;;;12.30;63.70;;;;;;5072356;28;20025;-78
2021/03/28 12:44:52;;;;;;;;;;;12.30;66.20;;;;;;5073022;28;20425;-79
2021/03/28 12:47:26;;;;;;;13.43;3.38;;;12.30;63.40;;;;;;5070600;28;19927;-80
2021/03/28 12:49:59;;;;;;;10.90;3.55;;;12.30;63.20;;;;;;5071057;28;20460;-80
2021/03/28 12:52:36;;;;;;;12.20;2.97;;;12.30;64.50;;;;;;5070747;28;20047;-79
2021/03/28 12:55:07;;;;;;;15.27;3.30;;;12.20;64.70;;;;;;5086751;28;20527;-76
2021/03/28 12:57:44;;;;;;;9.82;3.63;;;12.30;65.40;;;;;;5075068;28;20031;-78
2021/03/28 13:00:14;;;;;;;10.75;2.80;;;12.30;64.70;;;;;;5085551;28;20357;-81
2021/03/28 13:02:40;;;;;;;;;;;12.30;65.80;;;;;;5072562;28;20013;-78
2021/03/28 13:05:12;;;;;;;10.95;3.17;;;12.30;65.70;;;;;;5071647;28;20270;-77
2021/03/28 13:07:42;;;;;;;12.70;3.33;;;12.40;66.10;;;;;;5070710;28;20066;-76
2021/03/28 13:10:25;;;;;;;11.90;2.65;;;12.30;65.20;;;;;;5071491;28;20021;-75
2021/03/28 13:13:16;;;;;;;10.68;3.03;;;12.30;64.20;;;;;;5071691;28;20419;-76
2021/03/28 13:16:00;;;;;;;13.00;3.25;;;12.30;64.70;;;;;;5068495;28;20423;-79
2021/03/28 13:18:41;;;;;;;12.05;3.45;;;12.30;63.30;;;;;;5071922;28;20020;-76
2021/03/28 13:21:19;;;;;;;9.88;2.28;;;12.30;63.20;;;;;;5071505;28;20028;-74
2021/03/28 13:23:47;;;;;;;10.93;3.75;;;12.30;64.00;;;;;;5071437;28;20028;-75
2021/03/28 13:26:20;;;;;;;11.88;3.58;;;12.30;64.40;;;;;;5071324;28;20090;-80
2021/03/28 13:29:16;;;;;;;15.35;3.88;;;12.30;64.10;;;;;;5071309;28;20013;-79
2021/03/28 13:31:55;;;;;;;12.07;3.35;;;12.20;63.00;;;;;;5063248;28;20423;-79
2021/03/28 13:34:30;;;;;;;13.03;3.30;;;12.30;63.40;;;;;;5070627;28;20341;-77
2021/03/28 13:37:09;;;;;;;9.90;2.65;;;12.30;64.70;;;;;;5075994;28;20016;-79
2021/03/28 13:39:53;;;;;;;10.00;2.80;;;12.30;63.10;;;;;;5080412;28;20499;-79
2021/03/28 13:42:29;;;;;;;14.30;3.65;;;12.30;63.20;;;;;;5073189;28;20100;-78
2021/03/28 13:45:20;;;;;;;13.38;2.88;;;12.30;63.40;;;;;;5060738;28;20019;-80
2021/03/28 13:48:19;;;;;;;16.00;4.00;;;12.30;64.10;;;;;;5081606;28;20144;-79
2021/03/28 13:50:47;;;;;;;12.20;2.63;;;12.30;64.50;;;;;;5086700;28;20028;-77
2021/03/28 13:53:50;;;;;;;13.38;3.30;;;12.40;63.80;;;;;;5078935;28;20273;-76
2021/03/28 13:56:22;;;;;;;12.18;3.53;;;12.40;64.40;;;;;;5077426;28;20033;-79
2021/03/28 13:58:59;;;;;;;16.67;3.15;;;12.30;63.40;;;;;;5080632;28;20477;-78
2021/03/28 14:01:27;;;;;;;13.65;2.17;;;12.30;64.00;;;;;;5079041;28;20020;-76
2021/03/28 14:04:25;;;;;;;16.20;3.30;;;12.40;65.30;;;;;;5079671;28;20017;-79
2021/03/28 14:07:08;;;;;;;9.60;2.20;;;12.30;64.00;;;;;;5091584;28;20589;-80
2021/03/28 14:09:37;;;;;;;17.65;3.42;;;12.40;66.20;;;;;;5092707;28;20035;-80
2021/03/28 14:12:08;;;;;;;11.98;2.70;;;12.40;63.70;;;;;;5093384;28;20020;-80
2021/03/28 14:14:38;;;;;;;14.40;3.97;;;12.30;64.10;;;;;;5092522;28;20020;-80
2021/03/28 14:17:24;;;;;;;11.23;2.45;;;12.30;64.50;;;;;;5093053;28;20026;-79